MDJB

La Isabela International Airport

Airport
ICAO code
MDJB
IATA Code
JBQ
Summary
ICAO Region
CARSAM
ICAO Territory
Location

Vertedero La Isabela, Dominican Republic

Serving
Santo Domingo
Elevation
30 ft
Coordinates
18° 34' 33" N , 69° 58' 55" W
KCC
Aw
Airport WX
Tropical Revolving Storm
Metar
Observation
MDJB 182000Z 18010KT 8000 VCSH FEW018CB BKN018 32/27 Q1012 CB/ENE/E/N
Station
DR BALAGUER INTL
Date/Time
2022-08-18 20:00:00
Wind direction
180°
Wind speed
10 kts
Lowest cloud amount
few clouds
Temperature
32°C
Dew point
27°C
Humidity
75%
QNH
1012 hPa
Weather condition
n/a

International airport serving the city of Santo Domingo, Dominican Republic.

Climatology

Tropical savannah climate (Köppen climate classification Aw)

Runways

Designator Length Width Surface Rops
1/19 1650 30 ASP No/No

Airport map

Aerial View

SKYbrary Partners:

Safety knowledge contributed by: